sensor_id;sensor_type;location;lat;lon;timestamp;P1;durP1;ratioP1;P2;durP2;ratioP2
80541;SDS011;69870;51.460;8.842;2023-07-13T00:01:25;12.95;;;3.40;;
80541;SDS011;69870;51.460;8.842;2023-07-13T00:03:52;17.70;;;3.60;;
80541;SDS011;69870;51.460;8.842;2023-07-13T00:06:18;10.75;;;2.88;;
80541;SDS011;69870;51.460;8.842;2023-07-13T00:08:45;8.20;;;2.75;;
80541;SDS011;69870;51.460;8.842;2023-07-13T00:11:15;16.40;;;4.55;;
80541;SDS011;69870;51.460;8.842;2023-07-13T00:13:42;14.70;;;3.15;;
80541;SDS011;69870;51.460;8.842;2023-07-13T00:16:10;8.88;;;3.10;;
80541;SDS011;69870;51.460;8.842;2023-07-13T00:18:38;4.43;;;2.50;;
80541;SDS011;69870;51.460;8.842;2023-07-13T00:21:05;8.02;;;3.15;;
80541;SDS011;69870;51.460;8.842;2023-07-13T00:23:32;15.27;;;3.70;;
80541;SDS011;69870;51.460;8.842;2023-07-13T00:25:59;12.38;;;3.40;;
80541;SDS011;69870;51.460;8.842;2023-07-13T00:28:28;9.02;;;3.28;;
80541;SDS011;69870;51.460;8.842;2023-07-13T00:30:54;7.88;;;3.65;;
80541;SDS011;69870;51.460;8.842;2023-07-13T00:33:21;8.95;;;3.50;;
80541;SDS011;69870;51.460;8.842;2023-07-13T00:35:49;5.75;;;2.85;;
80541;SDS011;69870;51.460;8.842;2023-07-13T00:38:16;7.30;;;3.15;;
80541;SDS011;69870;51.460;8.842;2023-07-13T00:40:43;7.70;;;3.15;;
80541;SDS011;69870;51.460;8.842;2023-07-13T00:43:10;9.02;;;3.47;;
80541;SDS011;69870;51.460;8.842;2023-07-13T00:48:48;6.78;;;3.13;;
80541;SDS011;69870;51.460;8.842;2023-07-13T00:51:16;10.10;;;3.63;;
80541;SDS011;69870;51.460;8.842;2023-07-13T00:53:47;11.45;;;4.53;;
80541;SDS011;69870;51.460;8.842;2023-07-13T00:56:14;9.10;;;3.65;;
80541;SDS011;69870;51.460;8.842;2023-07-13T00:58:40;14.77;;;3.95;;
80541;SDS011;69870;51.460;8.842;2023-07-13T01:01:07;9.90;;;3.40;;
80541;SDS011;69870;51.460;8.842;2023-07-13T01:03:34;7.45;;;3.60;;
80541;SDS011;69870;51.460;8.842;2023-07-13T01:06:02;6.20;;;3.35;;
80541;SDS011;69870;51.460;8.842;2023-07-13T01:08:29;7.40;;;3.38;;
80541;SDS011;69870;51.460;8.842;2023-07-13T01:10:57;12.25;;;3.90;;
80541;SDS011;69870;51.460;8.842;2023-07-13T01:13:24;9.00;;;3.42;;
80541;SDS011;69870;51.460;8.842;2023-07-13T01:15:51;13.45;;;3.85;;
80541;SDS011;69870;51.460;8.842;2023-07-13T01:18:20;12.48;;;3.63;;
80541;SDS011;69870;51.460;8.842;2023-07-13T01:20:52;8.82;;;3.35;;
80541;SDS011;69870;51.460;8.842;2023-07-13T01:23:20;8.30;;;3.78;;
80541;SDS011;69870;51.460;8.842;2023-07-13T01:25:47;8.38;;;3.95;;
80541;SDS011;69870;51.460;8.842;2023-07-13T01:28:14;9.50;;;3.70;;
80541;SDS011;69870;51.460;8.842;2023-07-13T01:30:42;10.93;;;4.05;;
80541;SDS011;69870;51.460;8.842;2023-07-13T01:33:11;11.77;;;3.78;;
80541;SDS011;69870;51.460;8.842;2023-07-13T01:35:39;7.75;;;3.50;;
80541;SDS011;69870;51.460;8.842;2023-07-13T01:38:08;18.02;;;3.55;;
80541;SDS011;69870;51.460;8.842;2023-07-13T01:40:36;6.90;;;3.38;;
80541;SDS011;69870;51.460;8.842;2023-07-13T01:43:03;11.27;;;3.38;;
80541;SDS011;69870;51.460;8.842;2023-07-13T01:45:31;10.25;;;4.85;;
80541;SDS011;69870;51.460;8.842;2023-07-13T01:47:58;11.02;;;4.45;;
80541;SDS011;69870;51.460;8.842;2023-07-13T01:50:25;14.32;;;3.95;;
80541;SDS011;69870;51.460;8.842;2023-07-13T01:52:52;8.70;;;3.80;;
80541;SDS011;69870;51.460;8.842;2023-07-13T01:55:21;14.20;;;4.10;;
80541;SDS011;69870;51.460;8.842;2023-07-13T01:57:48;12.93;;;5.00;;
80541;SDS011;69870;51.460;8.842;2023-07-13T02:00:15;7.70;;;3.80;;
80541;SDS011;69870;51.460;8.842;2023-07-13T02:02:41;12.20;;;4.22;;
80541;SDS011;69870;51.460;8.842;2023-07-13T02:05:09;15.95;;;5.55;;
80541;SDS011;69870;51.460;8.842;2023-07-13T02:07:36;12.40;;;4.57;;
80541;SDS011;69870;51.460;8.842;2023-07-13T02:10:04;10.75;;;5.13;;
80541;SDS011;69870;51.460;8.842;2023-07-13T02:12:32;9.90;;;4.03;;
80541;SDS011;69870;51.460;8.842;2023-07-13T02:14:59;10.95;;;4.50;;
80541;SDS011;69870;51.460;8.842;2023-07-13T02:17:26;9.70;;;4.00;;
80541;SDS011;69870;51.460;8.842;2023-07-13T02:19:53;8.27;;;4.43;;
80541;SDS011;69870;51.460;8.842;2023-07-13T02:22:20;10.45;;;4.05;;
80541;SDS011;69870;51.460;8.842;2023-07-13T02:24:47;15.93;;;3.88;;
80541;SDS011;69870;51.460;8.842;2023-07-13T02:27:17;7.35;;;3.75;;
80541;SDS011;69870;51.460;8.842;2023-07-13T02:29:45;11.93;;;4.20;;
80541;SDS011;69870;51.460;8.842;2023-07-13T02:32:12;12.98;;;4.35;;
80541;SDS011;69870;51.460;8.842;2023-07-13T02:34:40;16.98;;;4.70;;
80541;SDS011;69870;51.460;8.842;2023-07-13T02:37:07;13.00;;;4.00;;
80541;SDS011;69870;51.460;8.842;2023-07-13T02:39:34;10.30;;;3.90;;
80541;SDS011;69870;51.460;8.842;2023-07-13T02:42:02;9.75;;;3.78;;
80541;SDS011;69870;51.460;8.842;2023-07-13T02:44:29;15.93;;;3.88;;
80541;SDS011;69870;51.460;8.842;2023-07-13T02:46:57;20.40;;;4.13;;
80541;SDS011;69870;51.460;8.842;2023-07-13T02:49:23;10.82;;;3.45;;
80541;SDS011;69870;51.460;8.842;2023-07-13T02:51:50;12.00;;;3.50;;
80541;SDS011;69870;51.460;8.842;2023-07-13T02:54:17;13.13;;;3.47;;
80541;SDS011;69870;51.460;8.842;2023-07-13T02:56:43;12.68;;;3.40;;
80541;SDS011;69870;51.460;8.842;2023-07-13T02:59:10;12.32;;;3.25;;
80541;SDS011;69870;51.460;8.842;2023-07-13T03:01:37;12.32;;;3.88;;
80541;SDS011;69870;51.460;8.842;2023-07-13T03:04:05;11.15;;;3.05;;
80541;SDS011;69870;51.460;8.842;2023-07-13T03:06:34;6.75;;;3.10;;
80541;SDS011;69870;51.460;8.842;2023-07-13T03:09:01;15.60;;;3.55;;
80541;SDS011;69870;51.460;8.842;2023-07-13T03:11:30;8.93;;;3.78;;
80541;SDS011;69870;51.460;8.842;2023-07-13T03:14:12;12.40;;;3.47;;
80541;SDS011;69870;51.460;8.842;2023-07-13T03:16:39;9.40;;;3.33;;
80541;SDS011;69870;51.460;8.842;2023-07-13T03:19:07;5.13;;;3.20;;
80541;SDS011;69870;51.460;8.842;2023-07-13T03:21:34;14.23;;;4.10;;
80541;SDS011;69870;51.460;8.842;2023-07-13T03:24:01;10.55;;;3.92;;
80541;SDS011;69870;51.460;8.842;2023-07-13T03:26:27;7.45;;;3.25;;
80541;SDS011;69870;51.460;8.842;2023-07-13T03:28:55;8.40;;;3.58;;
80541;SDS011;69870;51.460;8.842;2023-07-13T03:31:23;8.55;;;3.50;;
80541;SDS011;69870;51.460;8.842;2023-07-13T03:33:51;6.03;;;3.50;;
80541;SDS011;69870;51.460;8.842;2023-07-13T03:36:20;10.50;;;4.20;;
80541;SDS011;69870;51.460;8.842;2023-07-13T03:38:49;8.15;;;3.30;;
80541;SDS011;69870;51.460;8.842;2023-07-13T03:41:21;9.52;;;3.67;;
80541;SDS011;69870;51.460;8.842;2023-07-13T03:43:51;7.18;;;3.50;;
80541;SDS011;69870;51.460;8.842;2023-07-13T03:46:19;11.18;;;3.88;;
80541;SDS011;69870;51.460;8.842;2023-07-13T03:48:46;7.38;;;3.28;;
80541;SDS011;69870;51.460;8.842;2023-07-13T03:51:14;13.32;;;3.42;;
80541;SDS011;69870;51.460;8.842;2023-07-13T03:53:44;9.88;;;3.30;;
80541;SDS011;69870;51.460;8.842;2023-07-13T03:56:14;13.23;;;3.75;;
80541;SDS011;69870;51.460;8.842;2023-07-13T03:58:42;12.00;;;3.42;;
80541;SDS011;69870;51.460;8.842;2023-07-13T04:01:15;8.88;;;3.33;;
80541;SDS011;69870;51.460;8.842;2023-07-13T04:03:43;5.75;;;3.03;;
80541;SDS011;69870;51.460;8.842;2023-07-13T04:06:13;11.75;;;2.90;;
80541;SDS011;69870;51.460;8.842;2023-07-13T04:08:48;9.50;;;3.25;;
80541;SDS011;69870;51.460;8.842;2023-07-13T04:11:16;6.80;;;3.10;;
80541;SDS011;69870;51.460;8.842;2023-07-13T04:13:43;7.68;;;3.13;;
80541;SDS011;69870;51.460;8.842;2023-07-13T04:16:10;6.95;;;2.58;;
80541;SDS011;69870;51.460;8.842;2023-07-13T04:18:37;9.15;;;3.00;;
80541;SDS011;69870;51.460;8.842;2023-07-13T04:21:03;8.43;;;3.60;;
80541;SDS011;69870;51.460;8.842;2023-07-13T04:23:30;7.32;;;3.10;;
80541;SDS011;69870;51.460;8.842;2023-07-13T04:25:58;8.90;;;3.20;;
80541;SDS011;69870;51.460;8.842;2023-07-13T04:28:25;11.70;;;3.47;;
80541;SDS011;69870;51.460;8.842;2023-07-13T04:30:52;6.50;;;2.78;;
80541;SDS011;69870;51.460;8.842;2023-07-13T04:33:18;7.90;;;3.45;;
80541;SDS011;69870;51.460;8.842;2023-07-13T04:35:47;13.70;;;3.50;;
80541;SDS011;69870;51.460;8.842;2023-07-13T04:38:14;15.90;;;2.92;;
80541;SDS011;69870;51.460;8.842;2023-07-13T04:40:42;10.52;;;2.67;;
80541;SDS011;69870;51.460;8.842;2023-07-13T04:43:10;12.68;;;2.60;;
80541;SDS011;69870;51.460;8.842;2023-07-13T04:45:36;6.00;;;2.65;;
80541;SDS011;69870;51.460;8.842;2023-07-13T04:48:03;8.65;;;3.05;;
80541;SDS011;69870;51.460;8.842;2023-07-13T04:50:30;9.88;;;3.00;;
80541;SDS011;69870;51.460;8.842;2023-07-13T04:52:57;8.55;;;3.08;;
80541;SDS011;69870;51.460;8.842;2023-07-13T04:55:24;11.95;;;2.78;;
80541;SDS011;69870;51.460;8.842;2023-07-13T04:57:50;9.05;;;2.85;;
80541;SDS011;69870;51.460;8.842;2023-07-13T05:00:18;8.00;;;2.92;;
80541;SDS011;69870;51.460;8.842;2023-07-13T05:02:45;9.20;;;3.05;;
80541;SDS011;69870;51.460;8.842;2023-07-13T05:05:12;10.23;;;2.65;;
80541;SDS011;69870;51.460;8.842;2023-07-13T05:07:39;6.55;;;2.65;;
80541;SDS011;69870;51.460;8.842;2023-07-13T05:10:06;16.30;;;2.88;;
80541;SDS011;69870;51.460;8.842;2023-07-13T05:12:34;9.57;;;2.53;;
80541;SDS011;69870;51.460;8.842;2023-07-13T05:15:00;14.52;;;2.50;;
80541;SDS011;69870;51.460;8.842;2023-07-13T05:17:29;10.80;;;2.22;;
80541;SDS011;69870;51.460;8.842;2023-07-13T05:19:55;14.68;;;2.75;;
80541;SDS011;69870;51.460;8.842;2023-07-13T05:22:22;12.05;;;2.85;;
80541;SDS011;69870;51.460;8.842;2023-07-13T05:24:48;10.98;;;2.00;;
80541;SDS011;69870;51.460;8.842;2023-07-13T05:27:15;7.78;;;2.20;;
80541;SDS011;69870;51.460;8.842;2023-07-13T05:29:42;10.40;;;2.58;;
80541;SDS011;69870;51.460;8.842;2023-07-13T05:32:09;14.52;;;1.88;;
80541;SDS011;69870;51.460;8.842;2023-07-13T05:34:37;7.00;;;1.85;;
80541;SDS011;69870;51.460;8.842;2023-07-13T05:37:04;6.22;;;1.45;;
80541;SDS011;69870;51.460;8.842;2023-07-13T05:39:30;11.90;;;1.80;;
80541;SDS011;69870;51.460;8.842;2023-07-13T05:41:57;11.90;;;1.83;;
80541;SDS011;69870;51.460;8.842;2023-07-13T05:44:23;11.00;;;1.77;;
80541;SDS011;69870;51.460;8.842;2023-07-13T05:46:50;6.53;;;1.50;;
80541;SDS011;69870;51.460;8.842;2023-07-13T05:49:16;7.30;;;2.08;;
80541;SDS011;69870;51.460;8.842;2023-07-13T05:51:44;10.57;;;2.33;;
80541;SDS011;69870;51.460;8.842;2023-07-13T05:54:11;7.95;;;2.40;;
80541;SDS011;69870;51.460;8.842;2023-07-13T05:56:37;9.70;;;2.38;;
80541;SDS011;69870;51.460;8.842;2023-07-13T05:59:04;8.00;;;1.98;;
80541;SDS011;69870;51.460;8.842;2023-07-13T06:01:30;7.47;;;2.03;;
80541;SDS011;69870;51.460;8.842;2023-07-13T06:03:57;8.15;;;1.67;;
80541;SDS011;69870;51.460;8.842;2023-07-13T06:06:24;8.13;;;1.80;;
80541;SDS011;69870;51.460;8.842;2023-07-13T06:08:52;7.57;;;1.67;;
80541;SDS011;69870;51.460;8.842;2023-07-13T06:11:19;9.25;;;1.73;;
80541;SDS011;69870;51.460;8.842;2023-07-13T06:13:47;14.15;;;1.95;;
80541;SDS011;69870;51.460;8.842;2023-07-13T06:16:14;6.47;;;2.67;;
80541;SDS011;69870;51.460;8.842;2023-07-13T06:18:41;11.75;;;1.60;;
80541;SDS011;69870;51.460;8.842;2023-07-13T06:21:08;14.20;;;1.75;;
80541;SDS011;69870;51.460;8.842;2023-07-13T06:23:37;6.40;;;1.63;;
80541;SDS011;69870;51.460;8.842;2023-07-13T06:26:06;9.45;;;1.70;;
80541;SDS011;69870;51.460;8.842;2023-07-13T06:28:33;7.78;;;1.50;;
80541;SDS011;69870;51.460;8.842;2023-07-13T06:31:00;9.05;;;1.52;;
80541;SDS011;69870;51.460;8.842;2023-07-13T06:33:27;7.72;;;1.85;;
80541;SDS011;69870;51.460;8.842;2023-07-13T06:35:54;8.93;;;1.52;;
80541;SDS011;69870;51.460;8.842;2023-07-13T06:38:20;10.05;;;1.55;;
80541;SDS011;69870;51.460;8.842;2023-07-13T06:40:47;7.32;;;1.75;;
80541;SDS011;69870;51.460;8.842;2023-07-13T06:43:15;5.40;;;1.45;;
80541;SDS011;69870;51.460;8.842;2023-07-13T06:45:43;5.20;;;1.63;;
80541;SDS011;69870;51.460;8.842;2023-07-13T06:48:12;8.10;;;1.80;;
80541;SDS011;69870;51.460;8.842;2023-07-13T06:50:39;6.07;;;1.98;;
80541;SDS011;69870;51.460;8.842;2023-07-13T06:53:06;7.82;;;2.00;;
80541;SDS011;69870;51.460;8.842;2023-07-13T06:55:32;12.85;;;1.70;;
80541;SDS011;69870;51.460;8.842;2023-07-13T06:57:59;13.70;;;2.08;;
80541;SDS011;69870;51.460;8.842;2023-07-13T07:00:27;11.27;;;1.63;;
80541;SDS011;69870;51.460;8.842;2023-07-13T07:02:53;7.88;;;1.77;;
80541;SDS011;69870;51.460;8.842;2023-07-13T07:05:20;9.18;;;1.80;;
80541;SDS011;69870;51.460;8.842;2023-07-13T07:07:47;10.13;;;1.40;;
80541;SDS011;69870;51.460;8.842;2023-07-13T07:10:13;8.30;;;2.30;;
80541;SDS011;69870;51.460;8.842;2023-07-13T07:12:40;7.78;;;1.80;;
80541;SDS011;69870;51.460;8.842;2023-07-13T07:15:07;4.40;;;1.50;;
80541;SDS011;69870;51.460;8.842;2023-07-13T07:17:36;6.60;;;1.58;;
80541;SDS011;69870;51.460;8.842;2023-07-13T07:20:03;5.63;;;1.50;;
80541;SDS011;69870;51.460;8.842;2023-07-13T07:22:30;12.18;;;2.25;;
80541;SDS011;69870;51.460;8.842;2023-07-13T07:24:57;12.38;;;1.70;;
80541;SDS011;69870;51.460;8.842;2023-07-13T07:27:24;6.78;;;1.83;;
80541;SDS011;69870;51.460;8.842;2023-07-13T07:29:51;8.98;;;1.77;;
80541;SDS011;69870;51.460;8.842;2023-07-13T07:32:19;8.57;;;1.83;;
80541;SDS011;69870;51.460;8.842;2023-07-13T07:34:47;7.90;;;1.75;;
80541;SDS011;69870;51.460;8.842;2023-07-13T07:37:14;8.15;;;1.80;;
80541;SDS011;69870;51.460;8.842;2023-07-13T07:39:41;6.10;;;1.30;;
80541;SDS011;69870;51.460;8.842;2023-07-13T07:42:09;8.63;;;1.80;;
80541;SDS011;69870;51.460;8.842;2023-07-13T07:44:35;6.68;;;1.67;;
80541;SDS011;69870;51.460;8.842;2023-07-13T07:47:02;10.70;;;1.88;;
80541;SDS011;69870;51.460;8.842;2023-07-13T07:49:29;9.68;;;1.40;;
80541;SDS011;69870;51.460;8.842;2023-07-13T07:51:57;5.38;;;1.60;;
80541;SDS011;69870;51.460;8.842;2023-07-13T07:54:23;6.80;;;1.30;;
80541;SDS011;69870;51.460;8.842;2023-07-13T07:56:50;6.05;;;1.80;;
80541;SDS011;69870;51.460;8.842;2023-07-13T07:59:16;6.65;;;1.42;;
80541;SDS011;69870;51.460;8.842;2023-07-13T08:01:43;7.50;;;1.83;;
80541;SDS011;69870;51.460;8.842;2023-07-13T08:04:11;9.32;;;1.60;;
80541;SDS011;69870;51.460;8.842;2023-07-13T08:06:37;4.13;;;1.45;;
80541;SDS011;69870;51.460;8.842;2023-07-13T08:09:05;5.72;;;1.40;;
80541;SDS011;69870;51.460;8.842;2023-07-13T08:11:33;6.63;;;1.17;;
80541;SDS011;69870;51.460;8.842;2023-07-13T08:14:00;7.55;;;1.40;;
80541;SDS011;69870;51.460;8.842;2023-07-13T08:16:26;5.68;;;1.45;;
80541;SDS011;69870;51.460;8.842;2023-07-13T08:18:53;6.70;;;1.45;;
80541;SDS011;69870;51.460;8.842;2023-07-13T08:21:20;4.80;;;1.33;;
80541;SDS011;69870;51.460;8.842;2023-07-13T08:23:47;7.68;;;1.55;;
80541;SDS011;69870;51.460;8.842;2023-07-13T08:26:15;6.13;;;1.90;;
80541;SDS011;69870;51.460;8.842;2023-07-13T08:28:41;3.22;;;1.10;;
80541;SDS011;69870;51.460;8.842;2023-07-13T08:31:08;12.02;;;1.55;;
80541;SDS011;69870;51.460;8.842;2023-07-13T08:33:36;5.53;;;1.67;;
80541;SDS011;69870;51.460;8.842;2023-07-13T08:36:03;3.05;;;1.20;;
80541;SDS011;69870;51.460;8.842;2023-07-13T08:38:30;5.20;;;1.67;;
80541;SDS011;69870;51.460;8.842;2023-07-13T08:40:57;8.27;;;1.50;;
80541;SDS011;69870;51.460;8.842;2023-07-13T08:43:26;6.60;;;1.50;;
80541;SDS011;69870;51.460;8.842;2023-07-13T08:46:11;3.60;;;1.73;;
80541;SDS011;69870;51.460;8.842;2023-07-13T08:48:43;8.60;;;1.73;;
80541;SDS011;69870;51.460;8.842;2023-07-13T08:51:15;4.63;;;1.40;;
80541;SDS011;69870;51.460;8.842;2023-07-13T08:53:52;6.55;;;1.77;;
80541;SDS011;69870;51.460;8.842;2023-07-13T08:56:24;10.85;;;2.13;;
80541;SDS011;69870;51.460;8.842;2023-07-13T08:58:56;5.85;;;1.20;;
80541;SDS011;69870;51.460;8.842;2023-07-13T09:01:25;8.82;;;1.55;;
80541;SDS011;69870;51.460;8.842;2023-07-13T09:03:58;11.23;;;1.60;;
80541;SDS011;69870;51.460;8.842;2023-07-13T09:06:35;5.00;;;1.35;;
80541;SDS011;69870;51.460;8.842;2023-07-13T09:09:14;3.72;;;2.05;;
80541;SDS011;69870;51.460;8.842;2023-07-13T09:11:50;4.57;;;1.35;;
80541;SDS011;69870;51.460;8.842;2023-07-13T09:14:31;4.97;;;1.60;;
80541;SDS011;69870;51.460;8.842;2023-07-13T09:17:03;6.90;;;1.48;;
80541;SDS011;69870;51.460;8.842;2023-07-13T09:19:31;6.55;;;1.35;;
80541;SDS011;69870;51.460;8.842;2023-07-13T09:22:01;6.10;;;1.48;;
80541;SDS011;69870;51.460;8.842;2023-07-13T09:24:35;5.47;;;1.70;;
80541;SDS011;69870;51.460;8.842;2023-07-13T09:29:45;7.15;;;1.70;;
80541;SDS011;69870;51.460;8.842;2023-07-13T09:32:14;6.45;;;2.20;;
80541;SDS011;69870;51.460;8.842;2023-07-13T09:34:49;8.35;;;1.83;;
80541;SDS011;69870;51.460;8.842;2023-07-13T09:37:16;6.93;;;1.88;;
80541;SDS011;69870;51.460;8.842;2023-07-13T09:39:43;6.53;;;2.25;;
80541;SDS011;69870;51.460;8.842;2023-07-13T09:42:12;4.03;;;1.50;;
80541;SDS011;69870;51.460;8.842;2023-07-13T09:44:50;6.55;;;1.85;;
80541;SDS011;69870;51.460;8.842;2023-07-13T09:47:19;8.70;;;1.92;;
80541;SDS011;69870;51.460;8.842;2023-07-13T09:49:48;9.23;;;2.10;;
80541;SDS011;69870;51.460;8.842;2023-07-13T09:52:20;7.50;;;1.75;;
80541;SDS011;69870;51.460;8.842;2023-07-13T09:54:49;9.70;;;1.95;;
80541;SDS011;69870;51.460;8.842;2023-07-13T09:57:22;6.68;;;2.08;;
80541;SDS011;69870;51.460;8.842;2023-07-13T09:59:52;3.90;;;1.80;;
80541;SDS011;69870;51.460;8.842;2023-07-13T10:02:25;5.53;;;1.65;;
80541;SDS011;69870;51.460;8.842;2023-07-13T10:04:58;9.52;;;2.42;;
80541;SDS011;69870;51.460;8.842;2023-07-13T10:07:28;6.82;;;1.90;;
80541;SDS011;69870;51.460;8.842;2023-07-13T10:09:55;6.60;;;1.90;;
80541;SDS011;69870;51.460;8.842;2023-07-13T10:12:23;7.90;;;1.70;;
80541;SDS011;69870;51.460;8.842;2023-07-13T10:14:52;5.75;;;1.95;;
80541;SDS011;69870;51.460;8.842;2023-07-13T10:17:26;6.53;;;1.98;;
80541;SDS011;69870;51.460;8.842;2023-07-13T10:19:56;8.10;;;2.25;;
80541;SDS011;69870;51.460;8.842;2023-07-13T10:22:27;5.43;;;1.80;;
80541;SDS011;69870;51.460;8.842;2023-07-13T10:24:58;3.92;;;1.77;;
80541;SDS011;69870;51.460;8.842;2023-07-13T10:27:27;6.65;;;1.70;;
80541;SDS011;69870;51.460;8.842;2023-07-13T10:30:02;7.80;;;2.15;;
80541;SDS011;69870;51.460;8.842;2023-07-13T10:32:35;5.15;;;2.10;;
80541;SDS011;69870;51.460;8.842;2023-07-13T10:35:02;7.55;;;2.20;;
80541;SDS011;69870;51.460;8.842;2023-07-13T10:37:39;8.63;;;2.17;;
80541;SDS011;69870;51.460;8.842;2023-07-13T10:40:12;9.63;;;2.53;;
80541;SDS011;69870;51.460;8.842;2023-07-13T10:42:40;7.20;;;2.10;;
80541;SDS011;69870;51.460;8.842;2023-07-13T10:45:15;5.38;;;1.88;;
80541;SDS011;69870;51.460;8.842;2023-07-13T10:47:44;4.47;;;2.22;;
80541;SDS011;69870;51.460;8.842;2023-07-13T10:50:14;3.25;;;2.47;;
80541;SDS011;69870;51.460;8.842;2023-07-13T10:52:45;4.05;;;2.28;;
80541;SDS011;69870;51.460;8.842;2023-07-13T10:55:32;7.55;;;2.20;;
80541;SDS011;69870;51.460;8.842;2023-07-13T10:58:01;9.13;;;2.08;;
80541;SDS011;69870;51.460;8.842;2023-07-13T11:00:31;6.95;;;2.45;;
80541;SDS011;69870;51.460;8.842;2023-07-13T11:03:00;4.75;;;2.35;;
80541;SDS011;69870;51.460;8.842;2023-07-13T11:05:29;4.97;;;1.88;;
80541;SDS011;69870;51.460;8.842;2023-07-13T11:08:02;10.07;;;3.58;;
80541;SDS011;69870;51.460;8.842;2023-07-13T11:10:48;6.30;;;2.47;;
80541;SDS011;69870;51.460;8.842;2023-07-13T11:13:36;7.07;;;2.05;;
80541;SDS011;69870;51.460;8.842;2023-07-13T11:16:33;8.25;;;2.25;;
80541;SDS011;69870;51.460;8.842;2023-07-13T11:22:09;7.45;;;2.20;;
80541;SDS011;69870;51.460;8.842;2023-07-13T11:24:51;6.85;;;3.38;;
80541;SDS011;69870;51.460;8.842;2023-07-13T11:27:37;7.50;;;2.40;;
80541;SDS011;69870;51.460;8.842;2023-07-13T11:30:08;5.35;;;2.00;;
80541;SDS011;69870;51.460;8.842;2023-07-13T11:32:45;5.40;;;2.22;;
80541;SDS011;69870;51.460;8.842;2023-07-13T11:35:17;12.80;;;1.92;;
80541;SDS011;69870;51.460;8.842;2023-07-13T11:37:48;6.93;;;2.03;;
80541;SDS011;69870;51.460;8.842;2023-07-13T11:40:15;7.68;;;2.53;;
80541;SDS011;69870;51.460;8.842;2023-07-13T11:42:42;10.23;;;2.50;;
80541;SDS011;69870;51.460;8.842;2023-07-13T11:45:18;8.00;;;2.78;;
80541;SDS011;69870;51.460;8.842;2023-07-13T11:47:49;10.27;;;2.30;;
80541;SDS011;69870;51.460;8.842;2023-07-13T11:50:19;11.38;;;2.58;;
80541;SDS011;69870;51.460;8.842;2023-07-13T11:52:47;7.93;;;2.33;;
80541;SDS011;69870;51.460;8.842;2023-07-13T11:55:16;11.93;;;2.45;;
80541;SDS011;69870;51.460;8.842;2023-07-13T11:57:44;7.43;;;1.90;;
80541;SDS011;69870;51.460;8.842;2023-07-13T12:00:13;8.23;;;2.00;;
80541;SDS011;69870;51.460;8.842;2023-07-13T12:02:43;5.47;;;1.92;;
80541;SDS011;69870;51.460;8.842;2023-07-13T12:05:14;3.97;;;1.58;;
80541;SDS011;69870;51.460;8.842;2023-07-13T12:07:43;5.20;;;1.95;;
80541;SDS011;69870;51.460;8.842;2023-07-13T12:10:16;9.27;;;2.28;;
80541;SDS011;69870;51.460;8.842;2023-07-13T12:12:46;4.72;;;1.88;;
80541;SDS011;69870;51.460;8.842;2023-07-13T12:15:14;7.45;;;2.25;;
80541;SDS011;69870;51.460;8.842;2023-07-13T12:17:40;4.03;;;2.42;;
80541;SDS011;69870;51.460;8.842;2023-07-13T12:20:14;6.32;;;2.28;;
80541;SDS011;69870;51.460;8.842;2023-07-13T12:22:47;7.40;;;2.33;;
80541;SDS011;69870;51.460;8.842;2023-07-13T12:25:15;7.30;;;3.63;;
80541;SDS011;69870;51.460;8.842;2023-07-13T12:27:46;7.22;;;2.05;;
80541;SDS011;69870;51.460;8.842;2023-07-13T12:30:22;7.47;;;2.65;;
80541;SDS011;69870;51.460;8.842;2023-07-13T12:32:58;5.60;;;2.20;;
80541;SDS011;69870;51.460;8.842;2023-07-13T12:35:27;5.22;;;2.33;;
80541;SDS011;69870;51.460;8.842;2023-07-13T12:37:58;5.20;;;2.78;;
80541;SDS011;69870;51.460;8.842;2023-07-13T12:40:26;5.65;;;2.55;;
80541;SDS011;69870;51.460;8.842;2023-07-13T12:42:57;3.63;;;2.20;;
80541;SDS011;69870;51.460;8.842;2023-07-13T12:45:25;8.77;;;2.65;;
80541;SDS011;69870;51.460;8.842;2023-07-13T12:47:55;9.48;;;2.90;;
80541;SDS011;69870;51.460;8.842;2023-07-13T12:50:30;9.02;;;2.28;;
80541;SDS011;69870;51.460;8.842;2023-07-13T12:53:01;6.53;;;2.45;;
80541;SDS011;69870;51.460;8.842;2023-07-13T12:55:29;6.93;;;2.70;;
80541;SDS011;69870;51.460;8.842;2023-07-13T12:57:58;5.22;;;2.80;;
80541;SDS011;69870;51.460;8.842;2023-07-13T13:00:27;9.32;;;2.63;;
80541;SDS011;69870;51.460;8.842;2023-07-13T13:02:57;7.88;;;2.65;;
80541;SDS011;69870;51.460;8.842;2023-07-13T13:05:30;5.13;;;2.50;;
80541;SDS011;69870;51.460;8.842;2023-07-13T13:07:58;5.25;;;2.63;;
80541;SDS011;69870;51.460;8.842;2023-07-13T13:10:24;9.07;;;4.40;;
80541;SDS011;69870;51.460;8.842;2023-07-13T13:12:51;5.43;;;2.50;;
80541;SDS011;69870;51.460;8.842;2023-07-13T13:15:18;7.55;;;2.67;;
80541;SDS011;69870;51.460;8.842;2023-07-13T13:17:46;4.13;;;2.28;;
80541;SDS011;69870;51.460;8.842;2023-07-13T13:20:14;5.43;;;1.85;;
80541;SDS011;69870;51.460;8.842;2023-07-13T13:22:43;4.05;;;1.85;;
80541;SDS011;69870;51.460;8.842;2023-07-13T13:25:10;6.40;;;2.22;;
80541;SDS011;69870;51.460;8.842;2023-07-13T13:27:37;5.07;;;2.15;;
80541;SDS011;69870;51.460;8.842;2023-07-13T13:30:09;8.20;;;2.20;;
80541;SDS011;69870;51.460;8.842;2023-07-13T13:32:38;5.65;;;1.80;;
80541;SDS011;69870;51.460;8.842;2023-07-13T13:35:05;3.63;;;1.67;;
80541;SDS011;69870;51.460;8.842;2023-07-13T13:37:38;3.53;;;1.90;;
80541;SDS011;69870;51.460;8.842;2023-07-13T13:40:14;3.58;;;1.77;;
80541;SDS011;69870;51.460;8.842;2023-07-13T13:45:09;6.63;;;2.08;;
80541;SDS011;69870;51.460;8.842;2023-07-13T13:47:37;6.80;;;1.63;;
80541;SDS011;69870;51.460;8.842;2023-07-13T13:50:10;4.50;;;1.45;;
80541;SDS011;69870;51.460;8.842;2023-07-13T13:52:38;6.53;;;1.70;;
80541;SDS011;69870;51.460;8.842;2023-07-13T13:55:10;6.93;;;1.40;;
80541;SDS011;69870;51.460;8.842;2023-07-13T13:57:39;5.65;;;1.58;;
80541;SDS011;69870;51.460;8.842;2023-07-13T14:00:07;2.72;;;1.20;;
80541;SDS011;69870;51.460;8.842;2023-07-13T14:02:36;4.95;;;1.60;;
80541;SDS011;69870;51.460;8.842;2023-07-13T14:05:03;5.10;;;1.20;;
80541;SDS011;69870;51.460;8.842;2023-07-13T14:07:33;4.60;;;1.60;;
80541;SDS011;69870;51.460;8.842;2023-07-13T14:09:59;8.27;;;2.47;;
80541;SDS011;69870;51.460;8.842;2023-07-13T14:12:27;3.58;;;1.38;;
80541;SDS011;69870;51.460;8.842;2023-07-13T14:14:56;3.60;;;1.13;;
80541;SDS011;69870;51.460;8.842;2023-07-13T14:17:25;4.05;;;1.52;;
80541;SDS011;69870;51.460;8.842;2023-07-13T14:19:53;3.85;;;1.30;;
80541;SDS011;69870;51.460;8.842;2023-07-13T14:22:22;5.18;;;1.38;;
80541;SDS011;69870;51.460;8.842;2023-07-13T14:24:49;3.60;;;1.45;;
80541;SDS011;69870;51.460;8.842;2023-07-13T14:27:15;5.50;;;1.17;;
80541;SDS011;69870;51.460;8.842;2023-07-13T14:29:42;6.72;;;1.55;;
80541;SDS011;69870;51.460;8.842;2023-07-13T14:32:11;3.10;;;1.42;;
80541;SDS011;69870;51.460;8.842;2023-07-13T14:34:39;3.53;;;1.45;;
80541;SDS011;69870;51.460;8.842;2023-07-13T14:37:08;5.50;;;1.20;;
80541;SDS011;69870;51.460;8.842;2023-07-13T14:39:39;3.03;;;1.67;;
80541;SDS011;69870;51.460;8.842;2023-07-13T14:42:08;5.53;;;1.85;;
80541;SDS011;69870;51.460;8.842;2023-07-13T14:44:35;2.28;;;1.20;;
80541;SDS011;69870;51.460;8.842;2023-07-13T14:47:04;6.00;;;1.40;;
80541;SDS011;69870;51.460;8.842;2023-07-13T14:49:34;8.02;;;1.63;;
80541;SDS011;69870;51.460;8.842;2023-07-13T14:52:05;4.25;;;1.42;;
80541;SDS011;69870;51.460;8.842;2023-07-13T14:54:37;5.00;;;2.05;;
80541;SDS011;69870;51.460;8.842;2023-07-13T14:57:08;6.35;;;1.50;;
80541;SDS011;69870;51.460;8.842;2023-07-13T14:59:35;5.80;;;1.40;;
80541;SDS011;69870;51.460;8.842;2023-07-13T15:02:02;8.00;;;1.95;;
80541;SDS011;69870;51.460;8.842;2023-07-13T15:04:29;4.82;;;1.70;;